Time;durP1;ratioP1;P1;durP2;ratioP2;P2;SDS_P1;SDS_P2;PMS_P1;PMS_P2;Temp;Humidity;BMP_temperature;BMP_pressure;BME280_temperature;BME280_humidity;BME280_pressure;Samples;Min_cycle;Max_cycle;Signal;HPM_P1;HPM_P2
2021/04/30 00:02:47;;;;;;;8.82;7.10;;;10.70;97.90;;;;;;5084383;28;20232;-85
2021/04/30 00:05:14;;;;;;;15.77;12.65;;;10.70;97.30;;;;;;5081398;28;20201;-85
2021/04/30 00:07:40;;;;;;;8.05;6.57;;;10.60;97.20;;;;;;5084972;28;20575;-85
2021/04/30 00:20:52;;;;;;;7.72;6.60;;;10.70;98.20;;;;;;5084077;28;20215;-85
2021/04/30 05:27:05;;;;;;;13.05;11.65;;;10.80;94.10;;;;;;6223033;22;20225;-87
2021/04/30 05:29:34;;;;;;;13.35;11.93;;;10.80;94.80;;;;;;4985931;28;20242;-87
2021/04/30 05:32:00;;;;;;;12.57;11.27;;;10.80;94.10;;;;;;4968980;28;20226;-84
2021/04/30 05:38:14;;;;;;;17.63;13.20;;;10.80;94.40;;;;;;4987100;28;20192;-84
2021/04/30 05:48:17;;;;;;;17.13;12.65;;;10.80;93.70;;;;;;4986152;28;20188;-84
2021/04/30 05:54:11;;;;;;;15.52;13.32;;;11.00;94.50;;;;;;4966100;28;20236;-85
2021/04/30 05:57:33;;;;;;;15.65;13.50;;;11.00;93.20;;;;;;4949805;29;20260;-85
2021/04/30 06:00:09;;;;;;;16.95;14.02;;;10.90;93.20;;;;;;4965409;29;20247;-84
2021/04/30 06:02:37;;;;;;;18.40;13.93;;;11.00;92.90;;;;;;4950280;28;20211;-86
2021/04/30 06:05:05;;;;;;;15.65;13.82;;;10.90;93.10;;;;;;4948031;29;20586;-86
2021/04/30 06:07:32;;;;;;;15.93;14.30;;;11.10;93.10;;;;;;4988096;28;20192;-85
2021/04/30 06:10:48;;;;;;;17.40;14.57;;;11.20;92.30;;;;;;4987644;28;20574;-86
2021/04/30 06:13:19;;;;;;;20.67;14.68;;;11.00;92.50;;;;;;4984567;28;20228;-87
2021/04/30 06:15:45;;;;;;;15.70;14.10;;;11.00;92.70;;;;;;4989881;28;20200;-88
2021/04/30 06:18:12;;;;;;;21.05;14.23;;;11.10;93.30;;;;;;4988390;28;20228;-87
2021/04/30 06:20:41;;;;;;;18.42;14.85;;;11.10;92.70;;;;;;4993615;28;20284;-86
2021/04/30 06:23:40;;;;;;;18.58;15.13;;;11.00;92.90;;;;;;4986193;28;20315;-84
2021/04/30 06:26:07;;;;;;;24.70;16.10;;;11.00;92.80;;;;;;4998972;28;20192;-88
2021/04/30 06:33:48;;;;;;;18.95;16.55;;;10.90;92.50;;;;;;5790063;22;20233;-88
2021/04/30 06:36:16;;;;;;;21.60;16.35;;;10.90;93.00;;;;;;5023961;28;20554;-87
2021/04/30 06:38:42;;;;;;;20.50;15.95;;;11.00;93.00;;;;;;5024116;28;20290;-87
2021/04/30 06:41:17;;;;;;;16.92;15.05;;;11.00;92.60;;;;;;5024225;28;20203;-88
2021/04/30 06:43:44;;;;;;;19.70;15.45;;;11.20;92.90;;;;;;5009028;28;20291;-87
2021/04/30 06:56:47;;;;;;;16.70;14.75;;;11.00;91.50;;;;;;5026695;28;20180;-89
2021/04/30 06:59:21;;;;;;;17.55;14.07;;;11.30;90.80;;;;;;5009251;28;20203;-88
2021/04/30 07:04:33;;;;;;;16.25;14.43;;;11.60;89.70;;;;;;4995025;28;20667;-88
2021/04/30 07:07:01;;;;;;;17.98;14.45;;;11.70;86.80;;;;;;4981548;28;20250;-88
2021/04/30 07:09:27;;;;;;;14.60;12.93;;;11.80;87.00;;;;;;5024117;28;20225;-88
2021/04/30 07:11:54;;;;;;;15.15;13.02;;;12.00;83.90;;;;;;5001863;28;20228;-88
2021/04/30 07:14:21;;;;;;;14.93;13.40;;;12.40;81.40;;;;;;5001621;28;20219;-88
2021/04/30 07:16:48;;;;;;;14.85;13.23;;;12.70;79.00;;;;;;5005044;28;20211;-89
2021/04/30 07:19:15;;;;;;;16.35;13.32;;;12.90;77.90;;;;;;4994930;28;20276;-88
2021/04/30 07:21:42;;;;;;;14.88;13.32;;;13.40;75.50;;;;;;5032326;28;20210;-90
2021/04/30 07:24:09;;;;;;;16.48;13.18;;;13.40;74.00;;;;;;5008742;28;20231;-88
2021/04/30 07:26:36;;;;;;;15.18;12.27;;;13.40;73.50;;;;;;5018744;28;20255;-90
2021/04/30 07:29:03;;;;;;;13.80;12.35;;;13.80;68.60;;;;;;5015004;28;20243;-91
2021/04/30 07:31:30;;;;;;;17.98;12.95;;;14.10;67.00;;;;;;4992887;28;20207;-91
2021/04/30 07:34:21;;;;;;;13.02;11.70;;;14.30;63.20;;;;;;5038624;28;20260;-89
2021/04/30 07:37:34;;;;;;;15.02;12.23;;;14.90;59.20;;;;;;5036264;28;20202;-88
2021/04/30 07:40:00;;;;;;;13.98;12.30;;;15.30;57.40;;;;;;5017863;28;20214;-87
2021/04/30 07:42:27;;;;;;;14.02;12.02;;;15.40;56.50;;;;;;5018688;28;20198;-88
2021/04/30 07:45:14;;;;;;;15.88;12.48;;;15.00;57.20;;;;;;5018360;28;20233;-87
2021/04/30 07:47:41;;;;;;;14.63;13.15;;;14.80;59.30;;;;;;5035609;28;20205;-88
2021/04/30 07:50:08;;;;;;;13.88;12.10;;;14.20;65.80;;;;;;5033103;28;20206;-90
2021/04/30 07:52:34;;;;;;;13.85;12.45;;;14.20;67.20;;;;;;5027398;28;20225;-88
2021/04/30 07:55:02;;;;;;;16.23;13.20;;;14.60;63.60;;;;;;5038649;28;20219;-90
2021/04/30 07:57:29;;;;;;;14.55;13.02;;;14.80;62.70;;;;;;5019213;28;20745;-88
2021/04/30 07:59:56;;;;;;;15.05;13.40;;;15.00;61.50;;;;;;5019944;28;20297;-89
2021/04/30 08:02:46;;;;;;;16.08;13.25;;;15.10;61.30;;;;;;5010871;28;20203;-88
2021/04/30 08:05:33;;;;;;;15.13;13.60;;;15.10;63.30;;;;;;5027374;28;20222;-89
2021/04/30 08:08:04;;;;;;;14.73;13.23;;;15.10;62.90;;;;;;5005788;28;20258;-88
2021/04/30 08:10:31;;;;;;;14.35;12.88;;;15.10;64.60;;;;;;5021018;28;20542;-88
2021/04/30 08:12:58;;;;;;;13.90;12.20;;;15.10;63.60;;;;;;5019809;28;20231;-88
2021/04/30 08:15:25;;;;;;;15.85;12.70;;;14.90;64.00;;;;;;4986220;28;20204;-88
2021/04/30 08:17:52;;;;;;;15.02;13.43;;;14.90;62.90;;;;;;5004143;28;20227;-88
2021/04/30 08:20:19;;;;;;;14.93;12.93;;;14.60;66.20;;;;;;5013766;28;20203;-88
2021/04/30 08:22:45;;;;;;;13.52;11.98;;;15.20;64.40;;;;;;4999896;28;20246;-88
2021/04/30 08:25:18;;;;;;;13.95;12.50;;;15.80;58.10;;;;;;5014980;28;20198;-88
2021/04/30 08:31:06;;;;;;;13.80;12.32;;;16.60;56.00;;;;;;5022260;28;20171;-88
2021/04/30 08:36:56;;;;;;;15.18;11.25;;;16.70;52.90;;;;;;5004383;28;20207;-88
2021/04/30 08:39:23;;;;;;;15.20;11.65;;;16.80;53.00;;;;;;5012754;28;20318;-88
2021/04/30 08:41:50;;;;;;;14.15;12.27;;;16.90;53.10;;;;;;5024493;28;20258;-88
2021/04/30 08:44:19;;;;;;;12.82;11.40;;;16.60;52.80;;;;;;5032676;28;20262;-89
2021/04/30 08:46:46;;;;;;;15.98;11.38;;;16.80;53.00;;;;;;5042204;28;20535;-89
2021/04/30 08:49:12;;;;;;;12.35;11.07;;;16.70;52.90;;;;;;5023428;28;20241;-85
2021/04/30 08:51:40;;;;;;;11.38;10.27;;;17.20;51.70;;;;;;5020875;28;20784;-85
2021/04/30 08:54:09;;;;;;;12.00;10.77;;;17.60;51.60;;;;;;5013182;28;20223;-85
2021/04/30 08:56:36;;;;;;;14.45;11.85;;;17.90;48.80;;;;;;5013476;28;20218;-85
2021/04/30 08:59:05;;;;;;;12.98;11.68;;;17.50;50.90;;;;;;5021329;28;20227;-84
2021/04/30 09:01:37;;;;;;;12.32;11.02;;;17.50;53.60;;;;;;5020923;28;20187;-84
2021/04/30 09:04:05;;;;;;;12.80;10.98;;;18.00;54.10;;;;;;5005096;28;20686;-84
2021/04/30 09:06:33;;;;;;;13.25;10.32;;;18.50;48.90;;;;;;5016589;28;20199;-82
2021/04/30 09:09:08;;;;;;;12.40;10.45;;;18.80;45.70;;;;;;5022165;28;20234;-82
2021/04/30 09:11:36;;;;;;;10.90;9.90;;;17.70;50.40;;;;;;5027522;28;20195;-85
2021/04/30 09:14:23;;;;;;;11.63;9.95;;;17.80;49.20;;;;;;5002699;28;20227;-82
2021/04/30 09:17:00;;;;;;;10.63;9.45;;;17.10;51.70;;;;;;5011617;28;20209;-84
2021/04/30 09:19:33;;;;;;;9.40;8.38;;;17.30;52.00;;;;;;5021627;28;20203;-85
2021/04/30 09:22:01;;;;;;;12.15;9.18;;;18.30;47.30;;;;;;5025067;28;20204;-84
2021/04/30 09:24:30;;;;;;;10.00;8.95;;;18.40;48.00;;;;;;5019873;28;20239;-85
2021/04/30 09:27:11;;;;;;;10.35;8.57;;;18.60;48.20;;;;;;5021792;28;20211;-82
2021/04/30 09:29:37;;;;;;;10.38;8.20;;;20.30;42.70;;;;;;5015701;28;20247;-83
2021/04/30 09:32:49;;;;;;;7.95;7.22;;;20.40;40.40;;;;;;5017140;28;21068;-82
2021/04/30 09:35:28;;;;;;;9.50;8.30;;;19.10;43.90;;;;;;5011968;28;20216;-83
2021/04/30 09:37:56;;;;;;;8.10;7.40;;;20.40;40.90;;;;;;5034715;28;20676;-85
2021/04/30 09:43:57;;;;;;;7.18;6.22;;;20.20;40.90;;;;;;5025163;28;20222;-86
2021/04/30 09:46:30;;;;;;;5.75;4.45;;;19.70;39.30;;;;;;5006156;28;20210;-87
2021/04/30 09:48:59;;;;;;;5.40;4.90;;;19.90;40.60;;;;;;5025896;28;20231;-84
2021/04/30 09:54:48;;;;;;;4.72;4.30;;;21.00;36.70;;;;;;5020074;28;20229;-85
2021/04/30 09:57:17;;;;;;;4.72;4.30;;;20.80;36.80;;;;;;5023111;28;20199;-86
2021/04/30 09:59:53;;;;;;;4.82;4.07;;;21.40;35.90;;;;;;5018916;28;20660;-85
2021/04/30 10:02:20;;;;;;;4.70;4.30;;;22.80;34.40;;;;;;5027313;28;20261;-82
2021/04/30 10:04:48;;;;;;;5.30;3.80;;;22.40;31.80;;;;;;5020020;28;20226;-83
2021/04/30 10:07:16;;;;;;;4.43;4.00;;;22.20;33.90;;;;;;5011189;28;20213;-82
2021/04/30 10:09:44;;;;;;;5.82;4.00;;;21.80;33.60;;;;;;5020613;28;20233;-82
2021/04/30 10:12:26;;;;;;;4.22;3.83;;;21.20;36.60;;;;;;5010534;28;20227;-86
2021/04/30 10:14:54;;;;;;;4.60;3.67;;;22.70;34.30;;;;;;5011250;28;20242;-84
2021/04/30 10:17:22;;;;;;;4.38;3.97;;;23.30;31.30;;;;;;5018861;28;20263;-85
2021/04/30 10:19:50;;;;;;;5.68;5.18;;;22.40;34.10;;;;;;5029881;28;20750;-83
2021/04/30 10:22:20;;;;;;;4.22;3.90;;;20.90;34.00;;;;;;5014228;28;20202;-83
2021/04/30 10:24:50;;;;;;;4.45;4.05;;;20.80;36.90;;;;;;5010610;28;20235;-82
2021/04/30 10:27:19;;;;;;;4.57;4.18;;;21.80;33.60;;;;;;5013204;28;20223;-83
2021/04/30 10:30:17;;;;;;;4.93;4.50;;;20.60;36.00;;;;;;5008402;28;20228;-82
2021/04/30 10:32:49;;;;;;;4.72;4.22;;;21.70;33.50;;;;;;4997829;28;20281;-85
2021/04/30 10:35:22;;;;;;;4.75;4.40;;;23.20;32.70;;;;;;5006701;28;20925;-84
2021/04/30 10:38:15;;;;;;;5.00;4.60;;;23.20;32.80;;;;;;5006644;28;20239;-80
2021/04/30 10:41:01;;;;;;;7.00;4.80;;;23.80;31.40;;;;;;5010516;28;20217;-82
2021/04/30 10:43:29;;;;;;;5.28;4.78;;;24.40;30.30;;;;;;5013972;28;20251;-83
2021/04/30 10:46:06;;;;;;;6.03;4.97;;;24.60;29.40;;;;;;5010197;28;20210;-85
2021/04/30 10:49:00;;;;;;;5.28;4.85;;;23.60;31.10;;;;;;4988219;28;20222;-86
2021/04/30 10:51:27;;;;;;;5.20;4.70;;;23.10;32.30;;;;;;5010261;28;20210;-86
2021/04/30 10:53:53;;;;;;;5.22;4.72;;;22.90;34.50;;;;;;5012448;28;20232;-84
2021/04/30 10:56:27;;;;;;;5.60;5.07;;;22.80;34.40;;;;;;5024967;28;20276;-89
2021/04/30 10:58:54;;;;;;;5.50;5.00;;;23.00;33.50;;;;;;5021523;28;20226;-81
2021/04/30 11:01:23;;;;;;;5.78;5.28;;;23.20;32.50;;;;;;5018104;28;20235;-86
2021/04/30 11:04:18;;;;;;;5.60;5.10;;;22.40;34.10;;;;;;5008405;28;20230;-85
2021/04/30 11:06:47;;;;;;;5.80;5.20;;;21.80;36.10;;;;;;5018898;28;20203;-86
2021/04/30 11:09:19;;;;;;;6.10;5.60;;;21.50;35.80;;;;;;5001330;28;20219;-87
2021/04/30 11:11:46;;;;;;;6.22;5.20;;;21.50;37.40;;;;;;5029232;28;20204;-86
2021/04/30 11:14:35;;;;;;;6.10;5.20;;;20.70;37.80;;;;;;5021913;28;20227;-85
2021/04/30 11:17:48;;;;;;;5.47;4.97;;;20.70;38.30;;;;;;5020070;28;20191;-84
2021/04/30 11:20:17;;;;;;;6.15;5.55;;;20.40;38.90;;;;;;5014410;28;20271;-88
2021/04/30 11:23:11;;;;;;;5.53;5.03;;;19.90;39.90;;;;;;5003552;28;20203;-84
2021/04/30 11:26:03;;;;;;;7.15;4.90;;;19.80;41.30;;;;;;5026297;28;20200;-89
2021/04/30 11:29:10;;;;;;;5.60;5.07;;;19.30;43.10;;;;;;5008310;28;20265;-91
2021/04/30 11:31:39;;;;;;;6.25;5.65;;;19.20;42.80;;;;;;4988668;28;20669;-86
2021/04/30 11:37:31;;;;;;;5.97;5.45;;;19.10;43.00;;;;;;5008813;28;20214;-85
2021/04/30 11:39:59;;;;;;;6.55;5.95;;;19.30;44.50;;;;;;5033518;28;20280;-85
2021/04/30 11:42:28;;;;;;;6.50;5.78;;;19.40;43.00;;;;;;5032180;28;20199;-85
2021/04/30 11:44:54;;;;;;;5.43;4.97;;;19.60;42.30;;;;;;5027133;28;20203;-84
2021/04/30 11:47:28;;;;;;;5.80;5.25;;;19.80;41.50;;;;;;5023627;28;20188;-86
2021/04/30 11:50:07;;;;;;;5.50;4.80;;;19.90;41.40;;;;;;5024376;28;20223;-91
2021/04/30 11:52:41;;;;;;;6.57;5.20;;;19.70;42.80;;;;;;5019678;28;20215;-88
2021/04/30 11:55:23;;;;;;;5.85;5.28;;;19.30;43.60;;;;;;5025677;28;20254;-88
2021/04/30 11:57:56;;;;;;;7.63;6.43;;;19.30;43.10;;;;;;5017819;28;20192;-89
2021/04/30 12:00:24;;;;;;;6.70;6.00;;;18.90;44.40;;;;;;5018552;28;20199;-90
2021/04/30 12:03:01;;;;;;;7.43;6.80;;;18.90;44.50;;;;;;5018211;28;20565;-88
2021/04/30 12:05:29;;;;;;;6.30;5.72;;;19.10;44.40;;;;;;5012956;28;20195;-89
2021/04/30 12:07:57;;;;;;;6.68;6.00;;;19.20;45.00;;;;;;5015453;28;20293;-89
2021/04/30 12:10:26;;;;;;;5.40;5.00;;;19.10;43.60;;;;;;5021648;28;21058;-89
2021/04/30 12:12:53;;;;;;;5.72;5.22;;;18.90;44.70;;;;;;5018034;28;20227;-88
2021/04/30 12:15:28;;;;;;;5.97;5.40;;;18.90;45.30;;;;;;5015670;28;20361;-89
2021/04/30 12:17:54;;;;;;;7.88;6.10;;;19.10;43.50;;;;;;5012712;28;20195;-88
2021/04/30 12:20:23;;;;;;;6.88;5.80;;;19.10;45.30;;;;;;5013486;28;20218;-90
2021/04/30 12:22:54;;;;;;;7.35;6.45;;;19.10;44.50;;;;;;5012001;28;20242;-88
2021/04/30 12:41:43;;;;;;;7.35;6.60;;;19.10;46.00;;;;;;5164800;22;20227;-86
2021/04/30 12:44:11;;;;;;;7.28;5.82;;;19.00;43.30;;;;;;5008834;28;20235;-89
2021/04/30 12:46:39;;;;;;;6.40;5.80;;;18.60;46.00;;;;;;5004142;28;20214;-87
2021/04/30 12:49:07;;;;;;;6.57;5.97;;;18.60;45.70;;;;;;5008860;28;20637;-90
2021/04/30 12:51:36;;;;;;;7.20;6.50;;;18.40;46.40;;;;;;5016795;28;20214;-87
2021/04/30 12:54:04;;;;;;;6.50;5.82;;;18.80;44.80;;;;;;5010848;28;20272;-91
2021/04/30 12:56:32;;;;;;;6.60;5.88;;;18.80;45.10;;;;;;5016258;28;20757;-87
2021/04/30 12:59:10;;;;;;;6.70;6.05;;;18.90;44.90;;;;;;5009952;28;20239;-86
2021/04/30 13:01:38;;;;;;;6.97;6.38;;;19.00;43.80;;;;;;5012895;28;20203;-88
2021/04/30 13:04:04;;;;;;;11.20;6.25;;;19.00;44.60;;;;;;5012548;28;20230;-88
2021/04/30 13:06:45;;;;;;;6.68;6.07;;;19.00;44.90;;;;;;5007012;28;20207;-87
2021/04/30 13:09:14;;;;;;;8.40;5.80;;;18.80;43.50;;;;;;5015187;28;20233;-88
2021/04/30 13:11:42;;;;;;;5.15;4.70;;;19.00;44.90;;;;;;5021062;28;20196;-87
2021/04/30 13:14:58;;;;;;;5.45;4.95;;;19.30;43.20;;;;;;5008696;28;20314;-87
2021/04/30 13:17:58;;;;;;;4.97;4.57;;;19.40;43.20;;;;;;5020624;28;20286;-87
2021/04/30 13:20:48;;;;;;;4.20;3.80;;;19.30;42.70;;;;;;5020937;28;20612;-87
2021/04/30 13:23:16;;;;;;;4.05;3.75;;;19.50;39.80;;;;;;5019455;28;20230;-87
2021/04/30 13:25:51;;;;;;;5.70;3.60;;;19.50;40.80;;;;;;5020619;28;20210;-86
2021/04/30 13:28:20;;;;;;;6.10;3.22;;;19.50;40.50;;;;;;5015868;28;20254;-86
2021/04/30 13:31:08;;;;;;;2.88;2.50;;;19.50;40.60;;;;;;4999817;28;20199;-86
2021/04/30 13:33:48;;;;;;;4.80;3.15;;;19.50;41.10;;;;;;5004572;28;20228;-86
2021/04/30 13:36:15;;;;;;;4.47;3.45;;;19.60;40.00;;;;;;4984330;28;20207;-90
2021/04/30 13:38:41;;;;;;;3.60;3.30;;;19.70;39.40;;;;;;4963193;28;20223;-89
2021/04/30 13:41:13;;;;;;;5.65;3.20;;;19.40;40.00;;;;;;4999868;28;20238;-89
2021/04/30 13:43:51;;;;;;;3.50;3.20;;;19.60;40.10;;;;;;4975156;28;20235;-90
2021/04/30 13:46:21;;;;;;;4.00;3.50;;;19.40;41.20;;;;;;4981690;28;20205;-89
2021/04/30 13:48:51;;;;;;;4.63;3.10;;;19.50;40.20;;;;;;4975358;28;20234;-89
2021/04/30 13:51:20;;;;;;;4.28;2.75;;;19.50;40.90;;;;;;4996249;28;20267;-92
2021/04/30 13:54:00;;;;;;;3.63;3.33;;;19.50;41.60;;;;;;4977594;28;20294;-90
2021/04/30 13:56:26;;;;;;;3.78;3.47;;;19.60;40.30;;;;;;4977524;28;20232;-88
2021/04/30 13:59:03;;;;;;;3.90;3.00;;;19.70;41.20;;;;;;4999835;28;20254;-87
2021/04/30 14:01:30;;;;;;;3.30;3.00;;;19.80;40.70;;;;;;4998039;28;20282;-86
2021/04/30 14:03:58;;;;;;;3.50;3.20;;;19.80;41.10;;;;;;4997855;28;20216;-86
2021/04/30 14:06:50;;;;;;;3.70;3.40;;;19.80;40.00;;;;;;4998193;28;20204;-85
2021/04/30 14:09:16;;;;;;;2.90;2.70;;;19.70;40.30;;;;;;4992764;28;20235;-85
2021/04/30 14:11:43;;;;;;;5.00;3.30;;;19.80;40.40;;;;;;4996843;28;20200;-89
2021/04/30 14:17:35;;;;;;;4.47;3.13;;;19.90;41.60;;;;;;4981765;28;20272;-85
2021/04/30 14:20:03;;;;;;;3.50;2.80;;;19.90;41.70;;;;;;4981436;28;20600;-86
2021/04/30 14:22:30;;;;;;;3.13;2.78;;;20.10;40.50;;;;;;4992955;28;20207;-86
2021/04/30 14:24:56;;;;;;;3.92;2.97;;;20.30;39.70;;;;;;5001853;28;20200;-85
2021/04/30 14:27:29;;;;;;;2.95;2.75;;;20.30;40.00;;;;;;5003678;28;20192;-88
2021/04/30 14:33:28;;;;;;;4.18;3.08;;;20.10;39.60;;;;;;5000321;28;20685;-89
2021/04/30 14:39:21;;;;;;;2.78;2.58;;;20.00;39.60;;;;;;5015823;28;20227;-85
2021/04/30 14:41:47;;;;;;;3.55;2.60;;;20.10;38.60;;;;;;5012000;28;20194;-86
2021/04/30 14:44:14;;;;;;;3.90;2.90;;;20.10;39.00;;;;;;5015921;28;20607;-86
2021/04/30 14:46:42;;;;;;;3.13;2.83;;;19.60;40.00;;;;;;5019048;28;20227;-94
2021/04/30 14:49:11;;;;;;;3.00;2.47;;;19.90;39.60;;;;;;5021247;28;20231;-90
2021/04/30 14:51:37;;;;;;;4.85;4.38;;;20.20;40.00;;;;;;5023035;28;20218;-89
2021/04/30 14:54:04;;;;;;;5.53;4.38;;;20.40;40.00;;;;;;5015160;28;20231;-86
2021/04/30 14:56:32;;;;;;;4.63;4.22;;;20.30;40.00;;;;;;5019821;28;20203;-86
2021/04/30 14:58:58;;;;;;;4.47;4.07;;;20.10;40.40;;;;;;5012066;28;20602;-86
2021/04/30 15:01:26;;;;;;;5.03;4.40;;;19.90;40.70;;;;;;5020090;28;20708;-91
2021/04/30 15:04:36;;;;;;;4.68;4.22;;;19.70;41.80;;;;;;5019926;28;20285;-88
2021/04/30 15:07:03;;;;;;;5.25;4.75;;;19.50;42.30;;;;;;5013889;28;20643;-87
2021/04/30 15:09:54;;;;;;;9.90;8.98;;;19.40;42.30;;;;;;5020825;28;20210;-86
2021/04/30 15:12:21;;;;;;;6.68;6.07;;;19.20;43.10;;;;;;5019159;28;20266;-86
2021/04/30 15:14:48;;;;;;;6.75;5.28;;;19.00;42.90;;;;;;5021832;28;20199;-86
2021/04/30 15:17:14;;;;;;;6.93;6.32;;;18.70;44.30;;;;;;5020731;28;20579;-86
2021/04/30 15:19:41;;;;;;;9.18;8.15;;;18.60;45.40;;;;;;5020372;28;20230;-87
2021/04/30 15:22:39;;;;;;;10.23;8.40;;;18.40;46.60;;;;;;5020842;28;20207;-87
2021/04/30 15:25:18;;;;;;;10.27;8.65;;;18.20;47.50;;;;;;5006128;28;20205;-88
2021/04/30 15:27:45;;;;;;;8.95;8.10;;;18.00;48.30;;;;;;5017153;28;20535;-88
2021/04/30 15:30:13;;;;;;;9.02;8.13;;;17.90;49.20;;;;;;5020576;28;20218;-90
2021/04/30 15:32:39;;;;;;;13.45;8.82;;;17.80;50.20;;;;;;5001506;28;20302;-90
2021/04/30 15:35:06;;;;;;;10.95;9.85;;;17.70;50.90;;;;;;4989031;28;20211;-88
2021/04/30 15:37:48;;;;;;;10.38;9.48;;;17.60;50.10;;;;;;5005960;28;20263;-89
2021/04/30 15:40:16;;;;;;;11.02;9.63;;;17.50;51.90;;;;;;5009464;28;20557;-87
2021/04/30 15:42:47;;;;;;;11.50;9.68;;;17.40;52.40;;;;;;5007272;28;20208;-87
2021/04/30 15:45:13;;;;;;;10.68;9.60;;;17.30;53.40;;;;;;5006046;28;20226;-93
2021/04/30 15:47:41;;;;;;;9.43;8.48;;;17.10;53.30;;;;;;5002842;28;20195;-87
2021/04/30 15:50:12;;;;;;;9.45;8.48;;;17.00;53.20;;;;;;5013673;28;20203;-87
2021/04/30 15:52:39;;;;;;;9.52;8.50;;;16.80;53.00;;;;;;5016070;28;20234;-89
2021/04/30 15:55:08;;;;;;;9.45;8.55;;;16.80;53.00;;;;;;5011629;28;20617;-87
2021/04/30 15:57:34;;;;;;;8.38;7.57;;;16.80;53.00;;;;;;5004729;28;20261;-90
2021/04/30 16:00:03;;;;;;;8.90;8.02;;;16.80;53.00;;;;;;5007210;28;20230;-88
2021/04/30 16:02:30;;;;;;;8.65;7.75;;;16.80;53.00;;;;;;5008936;28;20208;-90
2021/04/30 16:04:56;;;;;;;8.90;8.05;;;16.70;53.00;;;;;;5014940;28;20353;-89
2021/04/30 16:07:23;;;;;;;9.25;8.27;;;16.70;53.70;;;;;;5019865;28;20202;-87
2021/04/30 16:09:49;;;;;;;12.32;9.20;;;16.50;57.20;;;;;;5011161;28;20244;-90
2021/04/30 16:12:15;;;;;;;10.07;9.13;;;16.40;63.50;;;;;;5017420;28;20202;-87
2021/04/30 16:14:42;;;;;;;10.73;9.55;;;16.20;68.10;;;;;;5003573;28;20610;-87
2021/04/30 16:17:09;;;;;;;10.65;9.55;;;15.90;72.00;;;;;;5002483;28;20203;-87
2021/04/30 16:19:39;;;;;;;12.30;10.05;;;15.70;75.80;;;;;;5006025;28;20230;-87
2021/04/30 16:22:05;;;;;;;11.75;10.55;;;15.60;77.70;;;;;;5018514;28;20199;-86
2021/04/30 16:24:32;;;;;;;13.70;10.80;;;15.40;78.80;;;;;;5023530;28;20219;-85
2021/04/30 16:26:58;;;;;;;14.25;10.75;;;15.30;85.00;;;;;;5023643;28;20199;-86
2021/04/30 16:29:25;;;;;;;12.93;11.63;;;15.20;84.70;;;;;;5015892;28;20254;-85
2021/04/30 16:32:09;;;;;;;12.48;11.27;;;15.10;89.40;;;;;;4997768;28;20710;-85
2021/04/30 16:34:38;;;;;;;15.45;12.32;;;15.10;91.50;;;;;;5011313;28;20233;-89
2021/04/30 16:37:04;;;;;;;16.08;12.57;;;14.80;89.20;;;;;;5018510;28;20200;-86
2021/04/30 16:39:31;;;;;;;12.93;11.57;;;14.00;87.50;;;;;;5030585;28;20229;-86
2021/04/30 16:41:57;;;;;;;15.60;12.50;;;13.60;87.00;;;;;;5043312;28;20255;-85
2021/04/30 16:44:24;;;;;;;19.98;13.23;;;13.20;89.80;;;;;;5041884;28;20665;-84
2021/04/30 16:46:50;;;;;;;17.33;13.30;;;13.00;91.00;;;;;;5043271;28;20189;-84
2021/04/30 16:49:34;;;;;;;20.27;14.32;;;12.70;92.30;;;;;;5044865;28;20199;-86
2021/04/30 16:52:10;;;;;;;19.13;14.20;;;12.70;93.70;;;;;;5008783;28;20195;-86
2021/04/30 16:54:37;;;;;;;21.60;15.23;;;12.40;94.20;;;;;;5015794;28;20230;-86
2021/04/30 16:57:07;;;;;;;21.67;16.27;;;12.10;94.90;;;;;;5007914;28;20223;-92
2021/04/30 16:59:33;;;;;;;23.02;15.70;;;11.90;95.80;;;;;;5011609;28;20589;-85
2021/04/30 17:02:00;;;;;;;21.83;16.15;;;11.60;95.10;;;;;;5010673;28;20290;-84
2021/04/30 17:04:27;;;;;;;23.13;15.75;;;11.30;95.20;;;;;;5017226;28;20235;-85
2021/04/30 17:06:56;;;;;;;18.75;15.90;;;11.20;95.00;;;;;;5015815;28;20250;-85
2021/04/30 17:09:25;;;;;;;17.00;14.95;;;11.10;94.10;;;;;;5015344;28;20309;-85
2021/04/30 17:11:52;;;;;;;20.20;15.30;;;11.00;94.00;;;;;;5026138;28;20203;-84
2021/04/30 17:14:19;;;;;;;21.80;15.48;;;10.90;93.90;;;;;;5022754;28;20230;-85
2021/04/30 17:16:46;;;;;;;20.05;15.77;;;10.70;94.20;;;;;;5023187;28;20210;-85
2021/04/30 17:19:13;;;;;;;22.23;15.27;;;10.80;94.90;;;;;;5015393;28;20231;-85
2021/04/30 17:21:40;;;;;;;21.75;15.68;;;10.80;94.70;;;;;;5009765;28;20211;-84
2021/04/30 17:24:07;;;;;;;18.23;15.68;;;10.70;94.90;;;;;;5019768;28;20234;-85
2021/04/30 17:26:36;;;;;;;18.98;15.27;;;10.70;94.70;;;;;;5013155;28;20202;-87
2021/04/30 17:29:03;;;;;;;23.52;15.88;;;10.60;94.50;;;;;;5010977;28;20236;-88
2021/04/30 17:31:29;;;;;;;18.92;15.73;;;10.50;94.40;;;;;;5005972;28;20218;-84
2021/04/30 17:33:55;;;;;;;17.83;15.15;;;10.50;93.90;;;;;;5014204;28;20226;-84
2021/04/30 17:36:22;;;;;;;16.73;14.80;;;10.50;93.80;;;;;;5019852;28;20196;-83
2021/04/30 17:38:48;;;;;;;21.05;14.65;;;10.50;92.80;;;;;;5019406;28;20281;-84
2021/04/30 17:41:15;;;;;;;19.70;14.63;;;10.40;92.30;;;;;;5002064;28;20227;-85
2021/04/30 17:43:42;;;;;;;17.27;13.45;;;10.40;92.30;;;;;;5012970;28;20321;-83
2021/04/30 17:46:08;;;;;;;17.48;14.15;;;10.30;91.50;;;;;;5006525;28;20200;-84
2021/04/30 17:48:34;;;;;;;15.35;13.48;;;10.20;90.90;;;;;;5006030;28;20232;-84
2021/04/30 17:51:01;;;;;;;15.88;13.48;;;10.20;91.10;;;;;;5013871;28;20203;-85
2021/04/30 17:53:28;;;;;;;15.15;12.98;;;10.30;90.40;;;;;;5008381;28;20226;-87
2021/04/30 17:55:56;;;;;;;14.57;13.02;;;10.20;90.30;;;;;;5011489;28;20209;-88
2021/04/30 17:58:27;;;;;;;19.65;14.82;;;10.30;90.40;;;;;;5009189;28;20231;-83
2021/04/30 18:00:57;;;;;;;15.43;13.40;;;10.20;90.30;;;;;;5003472;28;20208;-84
2021/04/30 18:03:24;;;;;;;17.65;12.93;;;10.30;90.40;;;;;;5005354;28;20313;-84
2021/04/30 18:05:53;;;;;;;15.50;13.05;;;10.20;89.00;;;;;;5004908;28;20606;-84
2021/04/30 18:08:20;;;;;;;15.73;13.65;;;10.20;90.10;;;;;;5003797;28;20219;-85
2021/04/30 18:10:48;;;;;;;15.15;13.55;;;10.20;90.30;;;;;;5006189;28;20306;-84
2021/04/30 18:13:17;;;;;;;16.90;14.23;;;10.30;90.30;;;;;;4999849;28;20294;-83
2021/04/30 18:15:44;;;;;;;18.13;13.95;;;10.40;90.40;;;;;;5005988;28;20282;-84
2021/04/30 18:18:12;;;;;;;16.98;13.80;;;10.40;90.40;;;;;;5004994;28;20690;-86
2021/04/30 18:20:39;;;;;;;17.52;14.52;;;10.50;90.40;;;;;;5013789;28;20205;-87
2021/04/30 18:23:05;;;;;;;20.27;15.00;;;10.50;90.40;;;;;;5007728;28;20219;-85
2021/04/30 18:25:33;;;;;;;20.73;15.07;;;10.50;90.40;;;;;;5010733;28;20207;-83
2021/04/30 18:28:01;;;;;;;16.15;14.40;;;10.40;90.40;;;;;;5012717;28;20276;-84
2021/04/30 18:30:29;;;;;;;19.65;15.00;;;10.30;90.10;;;;;;5016766;28;20203;-84
2021/04/30 18:32:55;;;;;;;17.58;15.35;;;10.30;90.40;;;;;;5009046;28;20230;-84
2021/04/30 18:35:23;;;;;;;17.90;15.63;;;10.30;90.40;;;;;;5005422;28;20547;-84
2021/04/30 18:37:51;;;;;;;19.30;16.20;;;10.30;90.40;;;;;;5014515;28;20203;-84
2021/04/30 18:40:19;;;;;;;16.60;14.63;;;10.10;90.30;;;;;;5014203;28;20200;-86
2021/04/30 18:42:46;;;;;;;19.52;16.20;;;10.10;90.30;;;;;;5013007;28;20235;-85
2021/04/30 18:45:14;;;;;;;22.58;16.00;;;10.10;90.30;;;;;;5017062;28;20215;-84
2021/04/30 18:47:40;;;;;;;16.73;14.95;;;10.20;90.30;;;;;;5013234;28;20203;-84
2021/04/30 18:50:10;;;;;;;18.15;15.73;;;10.20;90.00;;;;;;5013472;28;20227;-83
2021/04/30 18:52:41;;;;;;;21.08;18.23;;;10.20;90.30;;;;;;5007175;28;20210;-85
2021/04/30 18:55:10;;;;;;;21.65;18.45;;;10.10;91.20;;;;;;5008339;28;20223;-84
2021/04/30 18:57:42;;;;;;;23.13;19.67;;;10.10;92.00;;;;;;5011656;28;20225;-83
2021/04/30 19:00:10;;;;;;;20.92;18.67;;;10.00;91.90;;;;;;5008542;28;20211;-83
2021/04/30 19:02:37;;;;;;;22.50;19.45;;;10.00;92.50;;;;;;5010504;28;20206;-84
2021/04/30 19:05:06;;;;;;;25.20;19.95;;;9.90;92.80;;;;;;5011686;28;20235;-83
2021/04/30 19:07:33;;;;;;;23.35;20.70;;;9.80;93.00;;;;;;5012719;28;20196;-83
2021/04/30 19:10:00;;;;;;;22.35;19.73;;;9.80;92.70;;;;;;5008874;28;20250;-83
2021/04/30 19:12:26;;;;;;;25.17;20.77;;;9.70;92.90;;;;;;5007048;28;20207;-84
2021/04/30 19:14:57;;;;;;;22.73;20.20;;;9.70;93.20;;;;;;5008169;28;20230;-83
2021/04/30 19:17:23;;;;;;;25.90;20.45;;;9.70;93.10;;;;;;5010589;28;20199;-85
2021/04/30 19:19:49;;;;;;;23.73;20.52;;;9.70;92.40;;;;;;5013923;28;20223;-83
2021/04/30 19:22:17;;;;;;;24.55;21.50;;;9.60;92.30;;;;;;5008527;28;20207;-83
2021/04/30 19:24:43;;;;;;;24.65;21.13;;;9.60;93.00;;;;;;5010218;28;20227;-85
2021/04/30 19:27:10;;;;;;;28.38;22.15;;;9.60;93.30;;;;;;5011768;28;20192;-84
2021/04/30 19:29:37;;;;;;;22.73;20.27;;;9.50;93.00;;;;;;5009076;28;20235;-86